Time;durP1;ratioP1;P1;durP2;ratioP2;P2;SDS_P1;SDS_P2;PMS_P1;PMS_P2;Temp;Humidity;BMP_temperature;BMP_pressure;BME280_temperature;BME280_humidity;BME280_pressure;Samples;Min_cycle;Max_cycle;Signal;HPM_P1;HPM_P2
2022/06/09 00:02:01;;;;;;;4.53;1.10;;;;;;;-144.47;50.74;53231.50;5041006;28;20862;-67
2022/06/09 00:04:34;;;;;;;4.57;1.30;;;;;;;-144.47;50.83;53160.00;5029378;28;20497;-67
2022/06/09 00:07:14;;;;;;;7.55;1.38;;;;;;;-144.47;50.87;53207.66;5028957;28;20025;-66
2022/06/09 00:09:52;;;;;;;5.25;1.38;;;;;;;-144.47;51.17;53231.50;5028467;28;20025;-67
2022/06/09 00:12:18;;;;;;;5.03;1.60;;;;;;;-144.47;51.27;53201.69;5028994;28;20455;-65
2022/06/09 00:14:43;;;;;;;3.05;1.20;;;;;;;-144.47;51.40;53225.53;5028448;28;20468;-66
2022/06/09 00:17:09;;;;;;;4.60;1.55;;;;;;;-144.47;51.48;53205.66;5028162;28;20076;-66
2022/06/09 00:19:35;;;;;;;6.80;1.52;;;;;;;-144.47;51.65;53199.72;5027923;28;20021;-67
2022/06/09 00:22:00;;;;;;;7.20;1.35;;;;;;;-144.47;51.90;53177.88;5028440;28;20040;-67
2022/06/09 00:24:26;;;;;;;5.28;1.40;;;;;;;-144.47;51.93;53225.53;5029180;28;20029;-67
2022/06/09 00:26:51;;;;;;;4.78;1.30;;;;;;;-144.47;52.27;53183.81;5028374;28;20104;-67
2022/06/09 00:29:17;;;;;;;6.25;1.45;;;;;;;-144.47;52.13;53219.56;5027649;28;20044;-66
2022/06/09 00:31:42;;;;;;;5.50;1.65;;;;;;;-144.47;51.96;53241.44;5028383;28;20040;-66
2022/06/09 00:34:08;;;;;;;7.20;1.48;;;;;;;-144.47;51.95;53215.59;5028391;28;20025;-66
2022/06/09 00:36:33;;;;;;;6.35;1.60;;;;;;;-144.47;52.00;53173.88;5028833;28;20083;-67
2022/06/09 00:38:59;;;;;;;11.05;1.30;;;;;;;-144.47;52.21;53209.66;5032634;28;20044;-67
2022/06/09 00:41:25;;;;;;;4.07;1.38;;;;;;;-144.47;52.69;53199.72;5017577;28;20399;-69
2022/06/09 00:43:51;;;;;;;6.93;1.70;;;;;;;-144.47;53.07;53213.63;5034595;28;20314;-67
2022/06/09 00:46:24;;;;;;;2.92;1.33;;;;;;;-144.47;53.24;53261.28;5035401;28;20033;-67
2022/06/09 00:49:04;;;;;;;6.00;1.45;;;;;;;-144.47;53.37;53201.69;5034208;28;20048;-68
2022/06/09 00:51:32;;;;;;;7.10;2.33;;;;;;;-144.47;53.53;53203.69;5019743;28;20021;-69
2022/06/09 00:54:12;;;;;;;5.60;1.40;;;;;;;-144.47;54.29;53189.78;5035063;28;20026;-66
2022/06/09 00:56:44;;;;;;;6.00;1.60;;;;;;;-144.47;54.76;53217.59;5026518;28;20411;-66
2022/06/09 00:59:13;;;;;;;6.53;1.70;;;;;;;-144.47;54.82;53217.59;5033824;28;20022;-67
2022/06/09 01:01:39;;;;;;;6.35;1.77;;;;;;;-144.47;56.24;53213.63;5017356;28;20113;-66
2022/06/09 01:04:09;;;;;;;5.60;1.63;;;;;;;-144.47;56.36;53207.66;5035040;28;20033;-68
2022/06/09 01:06:41;;;;;;;7.03;1.77;;;;;;;-144.47;56.62;53223.56;5035844;28;20033;-68
2022/06/09 01:09:11;;;;;;;8.18;1.88;;;;;;;-144.47;57.07;53201.69;5035014;28;20027;-71
2022/06/09 01:11:38;;;;;;;3.67;2.13;;;;;;;-144.47;57.40;53221.56;5034900;28;20036;-69
2022/06/09 01:14:06;;;;;;;4.90;1.98;;;;;;;-144.47;57.75;53227.53;5034743;28;20029;-68
2022/06/09 01:16:48;;;;;;;4.05;1.70;;;;;;;-144.47;57.86;53225.53;5035151;28;20064;-69
2022/06/09 01:19:20;;;;;;;4.88;1.60;;;;;;;-144.47;58.00;53229.50;5033922;28;20025;-68
2022/06/09 01:21:45;;;;;;;7.05;1.88;;;;;;;-144.47;58.32;53199.72;5022141;28;20321;-68
2022/06/09 01:24:32;;;;;;;6.47;1.95;;;;;;;-144.47;58.75;53213.63;5035317;28;20504;-68
2022/06/09 01:27:36;;;;;;;8.05;1.77;;;;;;;-144.47;59.50;53217.59;5034897;28;20029;-68
2022/06/09 01:30:22;;;;;;;7.07;2.15;;;;;;;-144.47;59.71;53225.53;5021966;28;20026;-69
2022/06/09 01:33:07;;;;;;;11.48;1.88;;;;;;;-144.47;59.28;53223.56;5031996;28;20036;-67
2022/06/09 01:35:43;;;;;;;5.85;1.60;;;;;;;-144.47;59.55;53227.53;5035416;28;20025;-68
2022/06/09 01:38:10;;;;;;;3.30;1.60;;;;;;;-144.47;60.27;53257.31;5032308;28;20096;-66
2022/06/09 01:40:36;;;;;;;12.98;2.10;;;;;;;-144.47;60.26;53213.63;5034430;28;20033;-68
2022/06/09 01:43:04;;;;;;;7.05;1.73;;;;;;;-144.47;60.39;53237.44;5034594;28;20099;-67
2022/06/09 01:45:49;;;;;;;11.43;2.00;;;;;;;-144.47;61.23;53237.44;5034671;28;20029;-68
2022/06/09 01:48:17;;;;;;;6.45;1.80;;;;;;;-144.47;60.77;53245.41;5034116;28;20104;-67
2022/06/09 01:51:00;;;;;;;6.10;2.00;;;;;;;-144.47;61.13;53251.34;5021851;28;20060;-68
2022/06/09 01:53:32;;;;;;;6.03;1.90;;;;;;;-144.47;61.31;53247.38;5014065;28;20601;-68
2022/06/09 01:56:04;;;;;;;9.25;1.85;;;;;;;-144.47;61.61;53245.41;5032136;28;20079;-67
2022/06/09 01:58:37;;;;;;;5.35;2.08;;;;;;;-144.47;61.95;53241.44;5028549;28;20017;-67
2022/06/09 02:01:04;;;;;;;6.32;1.88;;;;;;;-144.47;62.46;53259.31;5032285;28;20181;-68
2022/06/09 02:03:35;;;;;;;6.82;1.88;;;;;;;-144.47;61.34;53247.38;5030798;28;20026;-67
2022/06/09 02:06:04;;;;;;;3.42;1.52;;;;;;;-144.47;61.38;53267.25;5032286;28;20129;-67
2022/06/09 02:08:32;;;;;;;6.25;1.70;;;;;;;-144.47;61.40;53247.38;5031072;28;20047;-65
2022/06/09 02:11:00;;;;;;;6.40;2.22;;;;;;;-144.47;61.69;53245.41;5031585;28;20247;-68
2022/06/09 02:13:29;;;;;;;4.28;1.55;;;;;;;-144.47;61.26;53239.44;5012577;28;20075;-68
2022/06/09 02:16:00;;;;;;;7.38;1.77;;;;;;;-144.47;62.22;53259.31;5030676;28;20483;-67
2022/06/09 02:18:28;;;;;;;6.72;2.08;;;;;;;-144.47;62.30;53253.34;5030702;28;20033;-69
2022/06/09 02:21:01;;;;;;;5.78;1.83;;;;;;;-144.47;62.21;53239.44;5031636;28;20069;-68
2022/06/09 02:23:28;;;;;;;7.53;2.08;;;;;;;-144.47;61.88;53253.34;5018736;28;20029;-68
2022/06/09 02:25:53;;;;;;;5.15;1.92;;;;;;;-144.47;62.06;53209.66;5031234;28;20079;-65
2022/06/09 02:28:19;;;;;;;5.78;2.38;;;;;;;-144.47;62.11;53261.28;5030226;28;20031;-66
2022/06/09 02:30:45;;;;;;;4.63;2.20;;;;;;;-144.47;62.01;53239.44;5028322;28;20018;-66
2022/06/09 02:33:10;;;;;;;7.63;2.38;;;;;;;-144.47;62.08;53271.22;5029775;28;20105;-67
2022/06/09 02:35:37;;;;;;;7.35;2.38;;;;;;;-144.47;62.04;53271.22;5030580;28;20057;-67
2022/06/09 02:38:02;;;;;;;11.68;2.10;;;;;;;-144.47;62.31;53261.28;5030727;28;20018;-66
2022/06/09 02:40:28;;;;;;;8.20;2.08;;;;;;;-144.47;62.83;53229.50;5030453;28;20083;-67
2022/06/09 02:42:54;;;;;;;10.07;2.25;;;;;;;-144.47;63.14;53205.66;5030573;28;20051;-67
2022/06/09 02:45:19;;;;;;;10.23;2.40;;;;;;;-144.47;63.56;53271.22;5030248;28;20076;-67
2022/06/09 02:47:45;;;;;;;6.28;2.25;;;;;;;-144.47;63.27;53289.09;5030647;28;20100;-67
2022/06/09 02:50:12;;;;;;;7.35;2.42;;;;;;;-144.47;63.34;53201.69;5019773;28;20026;-68
2022/06/09 02:52:38;;;;;;;5.85;2.10;;;;;;;-144.47;63.20;53237.44;5026536;28;20265;-67
2022/06/09 02:55:04;;;;;;;10.82;2.85;;;;;;;-144.47;63.60;53231.50;5012686;28;20032;-67
2022/06/09 02:57:29;;;;;;;8.57;2.25;;;;;;;-144.47;63.80;53283.13;5010729;28;20493;-66
2022/06/09 02:59:55;;;;;;;7.70;2.80;;;;;;;-144.47;63.98;53245.41;5011769;28;20324;-68
2022/06/09 03:02:21;;;;;;;10.57;2.67;;;;;;;-144.47;64.10;53275.19;5029021;28;20425;-68
2022/06/09 03:04:47;;;;;;;9.52;2.83;;;;;;;-144.47;64.35;53253.34;5030011;28;20057;-67
2022/06/09 03:07:13;;;;;;;10.30;2.97;;;;;;;-144.47;64.52;53243.41;5030636;28;20483;-65
2022/06/09 03:09:39;;;;;;;7.68;2.45;;;;;;;-144.47;64.88;53245.41;5029548;28;20052;-69
2022/06/09 03:12:06;;;;;;;14.20;3.88;;;;;;;-144.47;65.00;53273.22;5017057;28;20100;-68
2022/06/09 03:14:32;;;;;;;10.20;2.78;;;;;;;-144.47;65.17;53205.66;5029806;28;20033;-67
2022/06/09 03:16:58;;;;;;;11.57;3.70;;;;;;;-144.47;65.37;53253.34;5030042;28;20449;-66
2022/06/09 03:19:23;;;;;;;6.95;2.83;;;;;;;-144.47;64.86;53243.41;5010732;28;20560;-66
2022/06/09 03:21:49;;;;;;;7.82;3.03;;;;;;;-144.47;64.94;53231.50;5030132;28;20021;-67
2022/06/09 03:24:14;;;;;;;7.63;2.83;;;;;;;-144.47;65.21;53283.13;5029769;28;20076;-68
2022/06/09 03:26:39;;;;;;;8.50;2.15;;;;;;;-144.47;64.87;53261.28;5029684;28;20036;-67
2022/06/09 03:29:05;;;;;;;6.10;2.83;;;;;;;-144.47;65.65;53231.50;5028663;28;20030;-66
2022/06/09 03:31:30;;;;;;;9.10;3.08;;;;;;;-144.47;65.32;53277.19;5012289;28;20021;-68
2022/06/09 03:33:56;;;;;;;10.10;3.53;;;;;;;-144.47;65.38;53263.28;5029395;28;20395;-66
2022/06/09 03:36:21;;;;;;;8.98;2.90;;;;;;;-144.47;65.51;53205.66;5022041;28;20029;-65
2022/06/09 03:38:47;;;;;;;10.48;2.80;;;;;;;-144.47;65.93;53273.22;5028970;28;20079;-67
2022/06/09 03:41:12;;;;;;;18.83;2.95;;;;;;;-144.47;65.18;53277.19;5029062;28;20025;-67
2022/06/09 03:43:37;;;;;;;11.88;3.80;;;;;;;-144.47;65.30;53245.41;5009092;28;20118;-66
2022/06/09 03:46:03;;;;;;;12.18;2.80;;;;;;;-144.47;65.39;53265.25;5029131;28;20039;-67
2022/06/09 03:48:29;;;;;;;12.32;3.33;;;;;;;-144.47;65.16;53251.34;5028912;28;20025;-66
2022/06/09 03:50:54;;;;;;;8.45;3.10;;;;;;;-144.47;65.05;53259.31;5013004;28;20026;-68
2022/06/09 03:53:20;;;;;;;10.90;3.45;;;;;;;-144.47;65.14;53283.13;5028594;28;20072;-65
2022/06/09 03:55:46;;;;;;;9.82;2.75;;;;;;;-144.47;64.94;53247.38;5016639;28;20438;-66
2022/06/09 03:58:11;;;;;;;5.38;2.72;;;;;;;-144.47;65.44;53227.53;5027440;28;20034;-65
2022/06/09 04:00:37;;;;;;;7.72;2.75;;;;;;;-144.47;65.10;53245.41;5007072;28;20115;-66
2022/06/09 04:03:03;;;;;;;7.18;2.90;;;;;;;-144.47;65.32;53243.41;5022349;28;20079;-67
2022/06/09 04:05:28;;;;;;;12.77;2.83;;;;;;;-144.47;65.54;53253.34;5028931;28;20017;-67
2022/06/09 04:07:54;;;;;;;9.48;2.53;;;;;;;-144.47;65.29;53249.38;5042643;22;20045;-68
2022/06/09 04:10:24;;;;;;;11.13;3.50;;;;;;;-144.47;65.37;53285.13;5029213;28;20475;-67
2022/06/09 04:12:50;;;;;;;9.30;3.33;;;;;;;-144.47;65.26;53249.38;5028671;28;20025;-67
2022/06/09 04:15:16;;;;;;;9.10;2.60;;;;;;;-144.47;65.23;53275.19;5027997;28;20183;-68
2022/06/09 04:17:43;;;;;;;8.05;2.42;;;;;;;-144.47;64.87;53273.22;5029098;28;20531;-68
2022/06/09 04:20:10;;;;;;;11.77;2.92;;;;;;;-144.47;64.85;53283.13;5014892;28;20075;-66
2022/06/09 04:22:35;;;;;;;12.07;3.22;;;;;;;-144.47;64.96;53229.50;5029179;28;20032;-67
2022/06/09 04:25:01;;;;;;;6.07;2.63;;;;;;;-144.47;64.64;53237.44;5029610;28;20017;-67
2022/06/09 04:27:26;;;;;;;10.85;3.33;;;;;;;-144.47;65.07;53271.22;5028422;28;20029;-67
2022/06/09 04:29:58;;;;;;;10.30;2.95;;;;;;;-144.47;64.55;53249.38;4994465;28;20672;-75
2022/06/09 04:32:24;;;;;;;9.50;2.95;;;;;;;-144.47;64.52;53239.44;5020744;28;20099;-66
2022/06/09 04:34:50;;;;;;;12.77;3.03;;;;;;;-144.47;65.10;53237.44;5029511;28;20033;-68
2022/06/09 04:37:15;;;;;;;6.13;2.92;;;;;;;-144.47;64.49;53233.47;5011543;28;20026;-65
2022/06/09 04:39:41;;;;;;;9.88;3.67;;;;;;;-144.47;64.97;53305.00;5026124;28;20607;-67
2022/06/09 04:42:08;;;;;;;5.80;3.08;;;;;;;-144.47;64.42;53243.41;5029006;28;20040;-67
2022/06/09 04:44:33;;;;;;;15.25;2.50;;;;;;;-144.47;64.63;53225.53;5016330;28;20033;-68
2022/06/09 04:46:58;;;;;;;7.60;2.28;;;;;;;-144.47;64.52;53277.19;5027051;28;20044;-65
2022/06/09 04:49:24;;;;;;;7.55;2.10;;;;;;;-144.47;64.58;53263.28;5025412;28;20484;-68
2022/06/09 04:51:49;;;;;;;7.03;2.63;;;;;;;-144.47;64.42;53239.44;5020684;28;20039;-65
2022/06/09 04:54:15;;;;;;;6.07;2.38;;;;;;;-144.47;64.79;53243.41;5028671;28;20045;-66
2022/06/09 04:56:40;;;;;;;8.05;2.30;;;;;;;-144.47;64.49;53257.31;5010830;28;20028;-66
2022/06/09 04:59:06;;;;;;;11.60;2.70;;;;;;;-144.47;64.03;53263.28;5027377;28;20486;-66
2022/06/09 05:01:31;;;;;;;12.32;3.00;;;;;;;-144.47;64.54;53261.28;5027583;28;20098;-67
2022/06/09 05:03:58;;;;;;;4.20;2.38;;;;;;;-144.47;64.32;53269.22;5025067;28;20029;-66
2022/06/09 05:06:25;;;;;;;7.00;3.00;;;;;;;-144.47;63.60;53231.50;5024198;28;20137;-67
2022/06/09 05:08:52;;;;;;;6.28;2.90;;;;;;;-144.47;64.04;53277.19;5027811;28;20029;-66
2022/06/09 05:11:18;;;;;;;6.20;2.63;;;;;;;-144.47;64.01;53293.06;5028119;28;20049;-64
2022/06/09 05:13:44;;;;;;;11.30;3.08;;;;;;;-144.47;64.65;53277.19;5024735;28;20054;-68
2022/06/09 05:16:10;;;;;;;5.65;2.45;;;;;;;-144.47;63.88;53265.25;5019531;28;20406;-69
2022/06/09 05:18:40;;;;;;;9.40;3.50;;;;;;;-144.47;64.84;53249.38;5026821;28;20029;-65
2022/06/09 05:21:07;;;;;;;5.53;2.80;;;;;;;-144.47;63.90;53243.41;5028691;28;20059;-66
2022/06/09 05:23:33;;;;;;;9.18;3.10;;;;;;;-144.47;64.64;53235.47;5009903;28;20049;-67
2022/06/09 05:26:00;;;;;;;11.23;3.00;;;;;;;-144.47;64.60;53229.50;5030727;28;20098;-66
2022/06/09 05:28:28;;;;;;;8.45;3.50;;;;;;;-144.47;63.48;53239.44;5012973;28;20140;-66
2022/06/09 05:30:54;;;;;;;9.48;3.00;;;;;;;-144.47;63.81;53287.13;5032010;28;20063;-67
2022/06/09 05:33:20;;;;;;;10.13;2.67;;;;;;;-144.47;63.30;53245.41;5030935;28;20087;-67
2022/06/09 05:35:46;;;;;;;6.30;3.22;;;;;;;-144.47;63.28;53249.38;5031594;28;20562;-67
2022/06/09 05:46:26;;;;;;;6.43;3.22;;;;;;;-144.47;62.76;53229.50;5029434;28;20088;-66
2022/06/09 05:48:51;;;;;;;7.32;3.22;;;;;;;-144.47;62.43;53267.25;5028229;28;20435;-66
2022/06/09 05:51:17;;;;;;;6.22;2.60;;;;;;;-144.47;62.18;53243.41;5031914;28;20028;-66
2022/06/09 05:53:43;;;;;;;7.43;2.92;;;;;;;-144.47;62.24;53231.50;5031108;28;20049;-67
2022/06/09 05:56:09;;;;;;;6.03;3.08;;;;;;;-144.47;61.81;53257.31;5031887;28;20497;-66
2022/06/09 05:58:35;;;;;;;8.02;3.25;;;;;;;-144.47;61.56;53249.38;5029624;28;20547;-65
2022/06/09 06:01:03;;;;;;;6.57;2.55;;;;;;;-144.47;61.94;53253.34;5011864;28;20071;-66
2022/06/09 06:03:29;;;;;;;6.35;2.58;;;;;;;-144.47;61.17;53259.31;5012645;28;20025;-66
2022/06/09 06:08:39;;;;;;;5.32;2.60;;;;;;;-144.47;60.31;53273.22;5030823;28;20526;-64
2022/06/09 06:11:05;;;;;;;4.93;2.58;;;;;;;-144.47;60.82;53233.47;5031781;28;20026;-65
2022/06/09 06:13:31;;;;;;;6.07;2.58;;;;;;;-144.47;61.07;53247.38;5030411;28;20021;-66
2022/06/09 06:15:56;;;;;;;9.15;2.75;;;;;;;-144.47;61.19;53289.09;5030347;28;20087;-64
2022/06/09 06:18:23;;;;;;;12.68;3.00;;;;;;;-144.47;61.38;53267.25;5030064;28;20037;-64
2022/06/09 06:20:48;;;;;;;5.57;2.45;;;;;;;-144.47;61.04;53257.31;5031716;28;20033;-64
2022/06/09 06:23:14;;;;;;;6.55;2.75;;;;;;;-144.47;61.16;53233.47;5031171;28;20108;-66
2022/06/09 06:25:40;;;;;;;7.88;2.85;;;;;;;-144.47;61.83;53219.56;5014406;28;20038;-66
2022/06/09 06:28:05;;;;;;;4.65;2.70;;;;;;;-144.47;61.08;53273.22;5029311;28;20518;-66
2022/06/09 06:30:31;;;;;;;5.70;2.50;;;;;;;-144.47;60.71;53231.50;5031112;28;20059;-67
2022/06/09 06:32:56;;;;;;;5.60;2.80;;;;;;;-144.47;61.01;53213.63;5012183;28;20040;-66
2022/06/09 06:35:22;;;;;;;5.65;2.55;;;;;;;-144.47;60.55;53271.22;5031668;28;20025;-69
2022/06/09 06:37:47;;;;;;;4.55;2.67;;;;;;;-144.47;60.56;53237.44;5030878;28;20030;-67
2022/06/09 06:40:15;;;;;;;6.93;2.55;;;;;;;-144.47;59.82;53221.56;5030697;28;20021;-67
2022/06/09 06:42:40;;;;;;;4.90;2.78;;;;;;;-144.47;60.04;53263.28;5012884;28;20029;-67
2022/06/09 06:45:06;;;;;;;5.15;2.70;;;;;;;-144.47;59.85;53249.38;5028477;28;20037;-65
2022/06/09 06:47:32;;;;;;;8.65;2.85;;;;;;;-144.47;60.06;53217.59;5025861;28;20025;-68
2022/06/09 06:49:57;;;;;;;8.77;3.17;;;;;;;-144.47;59.97;53259.31;5029758;28;20029;-66
2022/06/09 06:52:23;;;;;;;6.13;2.80;;;;;;;-144.47;60.15;53263.28;5027017;28;20047;-68
2022/06/09 06:54:49;;;;;;;5.63;2.58;;;;;;;-144.47;59.83;53237.44;5026862;28;20022;-66
2022/06/09 06:57:15;;;;;;;6.63;3.13;;;;;;;-144.47;59.23;53247.38;5020859;28;20037;-66
2022/06/09 06:59:41;;;;;;;11.77;3.90;;;;;;;-144.47;59.30;53261.28;5003645;28;20108;-68
2022/06/09 07:02:09;;;;;;;8.57;3.08;;;;;;;-144.47;59.28;53271.22;5028587;28;20036;-69
2022/06/09 07:04:35;;;;;;;7.88;3.25;;;;;;;-144.47;58.80;53243.41;5026747;28;20379;-69
2022/06/09 07:07:00;;;;;;;7.32;3.10;;;;;;;-144.47;58.93;53259.31;5022534;28;20025;-68
2022/06/09 07:09:25;;;;;;;8.38;3.10;;;;;;;-144.47;58.40;53247.38;5029624;28;20094;-67
2022/06/09 07:11:51;;;;;;;6.15;2.72;;;;;;;-144.47;57.57;53221.56;5028594;28;20026;-69
2022/06/09 07:14:16;;;;;;;8.93;3.08;;;;;;;-144.47;57.26;53237.44;5020743;28;20032;-66
2022/06/09 07:16:42;;;;;;;5.57;2.70;;;;;;;-144.47;57.22;53209.66;5023693;28;20045;-68
2022/06/09 07:19:07;;;;;;;8.73;3.08;;;;;;;-144.47;57.24;53275.19;5019436;28;20079;-66
2022/06/09 07:21:33;;;;;;;8.45;2.90;;;;;;;-144.47;56.59;53243.41;5024126;28;20223;-66
2022/06/09 07:23:58;;;;;;;7.47;2.42;;;;;;;-144.47;56.31;53237.44;5024374;28;20033;-69
2022/06/09 07:26:24;;;;;;;8.48;3.13;;;;;;;-144.47;54.69;53231.50;5024665;28;20423;-69
2022/06/09 07:28:49;;;;;;;8.10;3.38;;;;;;;-144.47;54.30;53237.44;5020541;28;20123;-69
2022/06/09 07:31:15;;;;;;;8.90;3.08;;;;;;;-144.47;54.60;53215.59;5010254;28;20017;-66
2022/06/09 07:33:41;;;;;;;6.65;3.60;;;;;;;-144.47;54.56;53233.47;5022732;28;20018;-67
2022/06/09 07:36:11;;;;;;;9.20;4.05;;;;;;;-144.47;54.61;53215.59;5025677;28;20032;-68
2022/06/09 07:38:37;;;;;;;8.65;3.65;;;;;;;-144.47;54.95;53241.44;5020391;28;20083;-67
2022/06/09 07:41:03;;;;;;;10.77;5.03;;;;;;;-144.47;54.46;53267.25;5021785;28;20112;-69
2022/06/09 07:43:29;;;;;;;15.45;4.80;;;;;;;-144.47;54.70;53189.78;5020214;28;20029;-70
2022/06/09 07:45:55;;;;;;;9.77;4.72;;;;;;;-144.47;54.34;53209.66;5024095;28;20120;-67
2022/06/09 07:48:21;;;;;;;12.73;4.82;;;;;;;-144.47;54.19;53185.81;5021210;28;20460;-67
2022/06/09 07:50:49;;;;;;;13.48;5.50;;;;;;;-144.47;53.86;53237.44;5022799;28;20021;-66
2022/06/09 07:53:15;;;;;;;12.43;5.53;;;;;;;-144.47;53.74;53225.53;5028642;28;20509;-66
2022/06/09 07:55:40;;;;;;;16.10;5.50;;;;;;;-144.47;52.79;53215.59;5029635;28;20044;-69
2022/06/09 07:58:06;;;;;;;10.75;5.38;;;;;;;-144.47;52.66;53165.94;5010653;28;20057;-67
2022/06/09 08:00:32;;;;;;;10.88;4.47;;;;;;;-144.47;53.01;53152.03;5026632;28;20021;-68
2022/06/09 08:02:58;;;;;;;9.30;4.93;;;;;;;-144.47;52.66;53205.66;5024477;28;20108;-66
2022/06/09 08:05:26;;;;;;;11.80;4.65;;;;;;;-144.47;51.94;53199.72;5021263;28;20017;-67
2022/06/09 08:07:52;;;;;;;9.65;4.63;;;;;;;-144.47;51.34;53197.72;5024566;28;20056;-68
2022/06/09 08:10:21;;;;;;;14.40;5.13;;;;;;;-144.47;50.78;53211.63;5024938;28;20032;-65
2022/06/09 08:12:49;;;;;;;12.38;6.28;;;;;;;-144.47;50.06;53189.78;5025935;28;20029;-66
2022/06/09 08:15:16;;;;;;;12.68;4.97;;;;;;;-144.47;50.03;53191.78;5027560;28;20021;-68
2022/06/09 08:17:41;;;;;;;11.05;4.43;;;;;;;-144.47;50.69;53209.66;5027848;28;20022;-68
2022/06/09 08:20:08;;;;;;;15.30;4.70;;;;;;;-144.47;50.08;53197.72;5029104;28;20034;-67
2022/06/09 08:22:34;;;;;;;17.80;5.25;;;;;;;-144.47;49.88;53197.72;5028319;28;20503;-70
2022/06/09 08:24:59;;;;;;;12.88;4.72;;;;;;;-144.47;50.00;53209.66;5029381;28;20052;-67
2022/06/09 08:27:25;;;;;;;11.38;4.25;;;;;;;-144.47;49.59;53163.97;5028100;28;20156;-66
2022/06/09 08:29:51;;;;;;;9.93;4.40;;;;;;;-144.47;49.36;53231.50;5027465;28;20091;-68
2022/06/09 08:32:17;;;;;;;18.33;4.78;;;;;;;-144.47;48.82;53187.78;5028548;28;20059;-69
2022/06/09 08:34:43;;;;;;;13.38;4.07;;;;;;;-144.47;48.63;53219.56;5029994;28;20033;-68
2022/06/09 08:37:08;;;;;;;9.20;4.68;;;;;;;-144.47;48.76;53207.66;5027503;28;20056;-66
2022/06/09 08:39:34;;;;;;;9.48;4.22;;;;;;;-144.47;49.30;53171.91;5029323;28;20053;-69
2022/06/09 08:42:02;;;;;;;13.00;4.15;;;;;;;-144.47;49.33;53175.88;5029059;28;20029;-66
2022/06/09 08:44:46;;;;;;;11.98;4.78;;;;;;;-144.47;48.90;53171.91;5030104;28;20037;-68
2022/06/09 08:47:23;;;;;;;12.98;5.35;;;;;;;-144.47;48.49;53197.72;5025110;28;20272;-69
2022/06/09 08:50:10;;;;;;;15.63;6.22;;;;;;;-144.47;48.76;53185.81;5028365;28;20025;-66
2022/06/09 08:52:48;;;;;;;14.05;4.47;;;;;;;-144.47;48.84;53195.75;5021027;28;20021;-64
2022/06/09 08:55:35;;;;;;;10.50;4.23;;;;;;;-144.47;48.81;53189.78;5028098;28;20033;-67
2022/06/09 08:58:21;;;;;;;10.73;4.40;;;;;;;-144.47;47.96;53201.69;5028031;28;20508;-69
2022/06/09 09:01:09;;;;;;;10.77;4.15;;;;;;;-144.47;47.52;53152.03;5031800;28;20029;-66
2022/06/09 09:03:46;;;;;;;12.80;4.05;;;;;;;-144.47;48.18;53158.00;5032020;28;20453;-64
2022/06/09 09:06:40;;;;;;;9.68;3.63;;;;;;;-144.47;48.14;53201.69;5032747;28;20029;-67
2022/06/09 09:09:17;;;;;;;10.73;4.75;;;;;;;-144.47;48.11;53187.78;5030457;28;20574;-68
2022/06/09 09:11:51;;;;;;;11.40;4.30;;;;;;;-144.47;48.34;53211.63;5031804;28;20033;-67
2022/06/09 09:14:28;;;;;;;13.30;4.53;;;;;;;-144.47;48.37;53225.53;5032792;28;20124;-68
2022/06/09 09:17:18;;;;;;;13.45;3.97;;;;;;;-144.47;48.54;53193.75;5019162;28;20103;-66
2022/06/09 09:19:54;;;;;;;10.70;4.15;;;;;;;-144.47;48.44;53207.66;5031313;28;20505;-68
2022/06/09 09:22:37;;;;;;;11.45;3.88;;;;;;;-144.47;48.79;53201.69;5032000;28;20033;-67
2022/06/09 09:25:13;;;;;;;9.32;3.10;;;;;;;-144.47;47.79;53197.72;5020353;28;20021;-69
2022/06/09 09:27:48;;;;;;;8.75;3.75;;;;;;;-144.47;47.77;53197.72;5030619;28;20021;-69
2022/06/09 09:30:37;;;;;;;7.53;3.67;;;;;;;-144.47;47.32;53175.88;5031659;28;20036;-65
2022/06/09 09:33:03;;;;;;;9.00;3.60;;;;;;;-144.47;47.33;53201.69;5018551;28;20236;-67
2022/06/09 09:35:40;;;;;;;10.10;4.13;;;;;;;-144.47;47.94;53187.78;5031893;28;20449;-67
2022/06/09 09:38:07;;;;;;;16.77;5.05;;;;;;;-144.47;48.73;53201.69;5031308;28;20235;-66
2022/06/09 09:40:39;;;;;;;12.43;4.38;;;;;;;-144.47;48.71;53209.66;5031303;28;20088;-68
2022/06/09 09:43:10;;;;;;;9.20;3.92;;;;;;;-144.47;48.37;53219.56;5031727;28;20184;-68
2022/06/09 09:45:50;;;;;;;13.90;4.35;;;;;;;-144.47;47.69;53189.78;5029767;28;20049;-68
2022/06/09 09:48:16;;;;;;;15.63;4.70;;;;;;;-144.47;47.09;53181.84;5030665;28;20018;-68
2022/06/09 09:50:50;;;;;;;10.25;4.10;;;;;;;-144.47;47.02;53154.03;5031369;28;20036;-66
2022/06/09 09:53:18;;;;;;;15.45;4.13;;;;;;;-144.47;46.82;53167.94;5030937;28;20073;-68
2022/06/09 09:55:52;;;;;;;8.70;4.50;;;;;;;-144.47;46.40;53185.81;5031377;28;20343;-69
2022/06/09 09:58:41;;;;;;;11.23;4.80;;;;;;;-144.47;46.52;53167.94;5030692;28;20112;-69
2022/06/09 10:01:25;;;;;;;11.27;4.57;;;;;;;-144.47;45.51;53191.78;5031670;28;20090;-67
2022/06/09 10:09:59;;;;;;;9.93;4.82;;;;;;;-144.47;46.03;53169.91;5009819;28;20052;-67
2022/06/09 10:12:31;;;;;;;9.98;4.22;;;;;;;-144.47;46.11;53197.72;5009818;28;20030;-68
2022/06/09 10:15:10;;;;;;;12.93;5.15;;;;;;;-144.47;46.17;53160.00;5010557;28;20021;-66
2022/06/09 10:18:06;;;;;;;11.63;4.75;;;;;;;-144.47;46.57;53219.56;5004770;28;20018;-68
2022/06/09 10:20:41;;;;;;;16.02;6.15;;;;;;;-144.47;46.56;53221.56;5011179;28;20476;-68
2022/06/09 10:23:06;;;;;;;13.98;5.40;;;;;;;-144.47;46.69;53177.88;5011229;28;20075;-67
2022/06/09 10:25:59;;;;;;;12.15;5.00;;;;;;;-144.47;47.19;53189.78;5011492;28;20108;-69
2022/06/09 10:28:48;;;;;;;13.02;3.90;;;;;;;-144.47;46.65;53227.53;5010297;28;20105;-66
2022/06/09 10:31:42;;;;;;;14.93;4.53;;;;;;;-144.47;46.86;53191.78;5011363;28;20120;-70
2022/06/09 10:34:30;;;;;;;9.57;4.43;;;;;;;-144.47;47.39;53197.72;5011237;28;20026;-75
2022/06/09 10:37:30;;;;;;;14.77;4.50;;;;;;;-144.47;46.69;53193.75;5010847;28;20029;-69
2022/06/09 10:40:11;;;;;;;12.50;4.82;;;;;;;-144.47;47.27;53199.72;5007137;28;20072;-69
2022/06/09 10:43:02;;;;;;;10.90;4.90;;;;;;;-144.47;47.46;53183.81;5010065;28;20051;-68
2022/06/09 10:46:05;;;;;;;15.85;5.50;;;;;;;-144.47;47.28;53193.75;5005506;28;20525;-66
2022/06/09 10:58:07;;;;;;;13.27;5.38;;;;;;;-144.47;49.15;53193.75;5009811;28;20403;-67
2022/06/09 11:00:37;;;;;;;10.60;5.05;;;;;;;-144.47;49.59;53197.72;5008942;28;20044;-65
2022/06/09 11:03:14;;;;;;;15.10;5.55;;;;;;;-144.47;49.16;53197.72;5006886;28;20391;-66
2022/06/09 11:05:45;;;;;;;12.45;5.22;;;;;;;-144.47;49.39;53207.66;5009464;28;20037;-66
2022/06/09 11:08:18;;;;;;;8.55;5.10;;;;;;;-144.47;48.97;53193.75;5009873;28;20518;-66
2022/06/09 11:10:57;;;;;;;12.43;5.60;;;;;;;-144.47;48.71;53179.84;5009439;28;20030;-67
2022/06/09 11:14:02;;;;;;;31.48;6.30;;;;;;;-144.47;48.04;53181.84;5007967;28;20025;-66
2022/06/09 11:16:41;;;;;;;15.15;5.90;;;;;;;-144.47;47.87;53199.72;4991819;28;21993;-65
2022/06/09 11:19:25;;;;;;;11.05;5.30;;;;;;;-144.47;47.52;53219.56;5009509;28;20028;-67
2022/06/09 11:22:24;;;;;;;20.98;4.60;;;;;;;-144.47;47.15;53193.75;5009719;28;20042;-69
2022/06/09 11:25:34;;;;;;;11.65;4.78;;;;;;;-144.47;47.29;53191.78;4996734;28;20069;-68
2022/06/09 11:28:09;;;;;;;14.13;4.63;;;;;;;-144.47;47.24;53169.91;5008489;28;20041;-69
2022/06/09 11:30:53;;;;;;;9.02;4.28;;;;;;;-144.47;47.86;53205.66;5009238;28;20510;-68
2022/06/09 11:33:45;;;;;;;14.05;4.38;;;;;;;-144.47;46.85;53181.84;5010213;28;20030;-69
2022/06/09 11:36:36;;;;;;;7.38;4.07;;;;;;;-144.47;46.86;53209.66;5009377;28;20391;-67
2022/06/09 11:39:13;;;;;;;6.90;3.88;;;;;;;-144.47;46.70;53217.59;4986732;28;20164;-69
2022/06/09 11:41:46;;;;;;;13.10;4.20;;;;;;;-144.47;47.34;53195.75;5000353;28;20030;-69
2022/06/09 11:44:23;;;;;;;10.02;4.20;;;;;;;-144.47;49.08;53193.75;5010486;28;20046;-69
2022/06/09 11:46:51;;;;;;;11.70;4.57;;;;;;;-144.47;49.71;53235.47;5006963;28;20014;-70
2022/06/09 11:49:29;;;;;;;11.18;3.53;;;;;;;-144.47;48.66;53209.66;5009313;28;20026;-68
2022/06/09 11:51:56;;;;;;;9.50;3.83;;;;;;;-144.47;49.45;53241.44;5009861;28;20051;-68
2022/06/09 11:54:37;;;;;;;8.27;3.55;;;;;;;-144.47;49.85;53225.53;5009860;28;20025;-68
2022/06/09 11:57:38;;;;;;;8.15;3.25;;;;;;;-144.47;50.33;53215.59;5008417;28;20029;-67